Time;durP1;ratioP1;P1;durP2;ratioP2;P2;SDS_P1;SDS_P2;PMS_P1;PMS_P2;Temp;Humidity;BMP_temperature;BMP_pressure;BME280_temperature;BME280_humidity;BME280_pressure;Samples;Min_cycle;Max_cycle;Signal;HPM_P1;HPM_P2
2022/04/23 00:00:34;;;;;;;5.73;4.50;;;13.00;99.90;;;;;;5099395;28;20481;-49
2022/04/23 00:03:05;;;;;;;4.70;3.60;;;12.90;1.00;;;;;;5096989;28;20761;-52
2022/04/23 00:05:32;;;;;;;5.80;4.43;;;12.80;1.00;;;;;;5100030;28;20614;-53
2022/04/23 00:07:59;;;;;;;5.10;3.60;;;12.90;1.00;;;;;;5096708;28;20457;-51
2022/04/23 00:10:28;;;;;;;6.10;3.70;;;12.80;1.00;;;;;;5097430;28;20437;-53
2022/04/23 00:12:56;;;;;;;5.90;4.63;;;12.80;1.00;;;;;;5097064;28;20492;-48
2022/04/23 00:15:25;;;;;;;5.23;3.40;;;12.80;1.00;;;;;;5098785;28;20576;-51
2022/04/23 00:17:52;;;;;;;9.43;4.30;;;12.90;1.00;;;;;;5097936;28;20453;-50
2022/04/23 00:20:19;;;;;;;6.13;4.23;;;12.90;1.00;;;;;;5098388;28;20785;-50
2022/04/23 00:22:46;;;;;;;5.53;4.93;;;12.80;1.00;;;;;;5098186;28;20808;-46
2022/04/23 00:25:13;;;;;;;8.50;5.70;;;12.70;1.00;;;;;;5096826;28;20553;-47
2022/04/23 00:27:44;;;;;;;4.27;3.60;;;12.70;1.00;;;;;;5095169;28;20500;-47
2022/04/23 00:30:11;;;;;;;4.43;4.03;;;12.60;1.00;;;;;;5098422;28;20436;-48
2022/04/23 00:32:38;;;;;;;4.80;2.67;;;12.60;33.90;;;;;;5097162;28;20595;-49
2022/04/23 00:35:06;;;;;;;8.23;4.37;;;12.60;99.90;;;;;;5097068;28;20532;-49
2022/04/23 00:37:33;;;;;;;4.07;3.40;;;12.60;11.60;;;;;;5096468;28;20452;-50
2022/04/23 00:40:00;;;;;;;5.20;3.87;;;12.70;1.00;;;;;;5096509;28;20487;-49
2022/04/23 00:42:27;;;;;;;5.50;3.37;;;12.70;1.00;;;;;;5098032;28;20851;-49
2022/04/23 00:44:55;;;;;;;5.70;3.80;;;12.70;1.00;;;;;;5095636;28;20857;-51
2022/04/23 00:47:22;;;;;;;7.33;4.47;;;12.80;1.00;;;;;;5097801;28;20437;-51
2022/04/23 00:49:51;;;;;;;7.30;3.60;;;12.80;1.00;;;;;;5096274;28;20876;-53
2022/04/23 00:52:19;;;;;;;5.33;3.77;;;12.80;1.00;;;;;;5098927;28;20756;-49
2022/04/23 00:54:46;;;;;;;4.90;4.20;;;12.80;1.00;;;;;;5097338;28;20510;-50
2022/04/23 00:57:13;;;;;;;5.10;2.83;;;12.70;1.00;;;;;;5096141;28;20548;-49
2022/04/23 00:59:40;;;;;;;5.33;3.40;;;12.70;1.00;;;;;;5093684;28;20682;-49
2022/04/23 01:02:12;;;;;;;5.90;3.47;;;12.70;1.00;;;;;;5095275;28;20732;-51
2022/04/23 01:04:39;;;;;;;5.60;3.40;;;12.70;54.80;;;;;;5095091;28;20453;-48
2022/04/23 01:07:06;;;;;;;4.40;2.93;;;12.70;99.90;;;;;;5097135;28;20799;-48
2022/04/23 01:09:33;;;;;;;5.17;3.37;;;12.60;99.90;;;;;;5095494;28;20835;-50
2022/04/23 01:12:01;;;;;;;3.20;2.30;;;12.70;1.00;;;;;;5097654;28;20536;-46
2022/04/23 01:14:28;;;;;;;4.10;2.63;;;12.60;1.00;;;;;;5095528;28;20928;-50
2022/04/23 01:16:55;;;;;;;4.83;3.30;;;12.60;1.00;;;;;;5096579;28;20879;-48
2022/04/23 01:19:25;;;;;;;3.40;2.07;;;12.60;1.00;;;;;;5096854;28;20457;-51
2022/04/23 01:21:55;;;;;;;2.43;2.13;;;12.50;93.80;;;;;;5097226;28;20481;-50
2022/04/23 01:24:22;;;;;;;5.37;2.20;;;12.40;1.00;;;;;;5096691;28;20547;-47
2022/04/23 01:26:49;;;;;;;2.97;2.63;;;12.30;1.00;;;;;;5096877;28;20572;-51
2022/04/23 01:29:17;;;;;;;3.97;3.13;;;12.30;1.00;;;;;;5097333;28;20532;-51
2022/04/23 01:31:44;;;;;;;3.30;2.10;;;12.30;99.90;;;;;;5096887;28;20899;-54
2022/04/23 01:34:11;;;;;;;4.07;2.60;;;12.20;1.00;;;;;;5094769;28;20544;-51
2022/04/23 01:36:38;;;;;;;3.63;2.00;;;12.20;99.90;;;;;;5096463;28;20504;-50
2022/04/23 01:39:06;;;;;;;3.60;2.00;;;12.20;99.90;;;;;;5097572;28;20541;-52
2022/04/23 01:41:33;;;;;;;2.77;1.77;;;12.30;99.90;;;;;;5097819;28;20572;-50
2022/04/23 01:44:00;;;;;;;5.93;3.10;;;12.20;1.00;;;;;;5097007;28;20445;-51
2022/04/23 01:46:27;;;;;;;3.30;2.43;;;12.10;1.00;;;;;;5097556;28;20533;-53
2022/04/23 01:48:54;;;;;;;3.17;2.27;;;12.00;1.00;;;;;;5094608;28;20920;-50
2022/04/23 01:51:23;;;;;;;3.33;2.20;;;11.90;1.00;;;;;;5096636;28;20529;-49
2022/04/23 01:53:50;;;;;;;4.07;2.47;;;11.80;99.90;;;;;;5095835;28;20888;-53
2022/04/23 01:56:19;;;;;;;2.30;1.90;;;11.70;99.90;;;;;;5096919;28;20663;-50
2022/04/23 01:58:46;;;;;;;3.70;1.83;;;11.70;99.90;;;;;;5096280;28;20475;-50
2022/04/23 02:01:13;;;;;;;3.67;2.53;;;11.70;1.00;;;;;;5078792;28;20485;-50
2022/04/23 02:03:40;;;;;;;3.40;2.67;;;11.60;1.00;;;;;;5097530;28;20900;-51
2022/04/23 02:06:07;;;;;;;5.40;2.33;;;11.60;1.00;;;;;;5095739;28;20468;-46
2022/04/23 02:08:35;;;;;;;4.60;2.60;;;11.50;1.00;;;;;;5096899;28;20507;-52
2022/04/23 02:11:01;;;;;;;4.77;3.17;;;11.40;1.00;;;;;;5096669;28;20533;-50
2022/04/23 02:13:30;;;;;;;6.80;3.03;;;11.30;1.00;;;;;;5096053;28;20928;-46
2022/04/23 02:15:57;;;;;;;6.23;3.47;;;11.20;1.00;;;;;;5094058;28;20507;-52
2022/04/23 02:18:28;;;;;;;4.63;3.20;;;11.20;1.00;;;;;;5096437;28;20449;-51
2022/04/23 02:20:55;;;;;;;4.20;2.93;;;11.00;1.00;;;;;;5096445;28;20485;-50
2022/04/23 02:23:22;;;;;;;4.53;2.50;;;11.00;1.00;;;;;;5096765;28;20481;-50
2022/04/23 02:25:48;;;;;;;3.53;3.00;;;11.00;1.00;;;;;;5095632;28;20540;-51
2022/04/23 02:28:15;;;;;;;9.30;2.63;;;10.90;1.00;;;;;;5096390;28;20540;-52
2022/04/23 02:30:43;;;;;;;4.20;3.00;;;10.80;1.00;;;;;;5096739;28;20536;-48
2022/04/23 02:33:11;;;;;;;3.40;2.70;;;10.80;1.00;;;;;;5095656;28;20532;-52
2022/04/23 02:35:39;;;;;;;6.20;2.90;;;10.90;1.00;;;;;;5095939;28;20540;-52
2022/04/23 02:38:09;;;;;;;6.60;4.13;;;11.00;1.00;;;;;;5095525;28;20464;-48
2022/04/23 02:40:38;;;;;;;8.77;3.57;;;11.00;1.00;;;;;;5096670;28;20488;-54
2022/04/23 02:43:07;;;;;;;5.03;3.10;;;10.90;1.00;;;;;;5094877;28;20457;-51
2022/04/23 02:45:35;;;;;;;4.77;2.87;;;10.80;1.00;;;;;;5096140;28;20449;-49
2022/04/23 02:48:04;;;;;;;4.67;3.90;;;10.80;1.00;;;;;;5094055;28;20961;-49
2022/04/23 02:50:34;;;;;;;4.40;4.03;;;10.90;1.00;;;;;;5094902;28;20520;-47
2022/04/23 02:53:02;;;;;;;5.63;4.43;;;10.90;1.00;;;;;;5093475;28;20477;-50
2022/04/23 02:55:32;;;;;;;7.97;4.13;;;10.80;1.00;;;;;;5095564;28;20752;-52
2022/04/23 02:58:01;;;;;;;4.93;3.83;;;10.80;1.00;;;;;;5093502;28;20454;-49
2022/04/23 03:00:28;;;;;;;8.13;5.07;;;10.80;1.00;;;;;;5096461;28;20572;-49
2022/04/23 03:02:55;;;;;;;5.27;3.60;;;10.80;1.00;;;;;;5094546;28;20904;-49
2022/04/23 03:05:25;;;;;;;6.40;3.70;;;10.70;1.00;;;;;;5096626;28;20469;-49
2022/04/23 03:07:53;;;;;;;6.13;3.27;;;10.60;1.00;;;;;;5095316;28;20480;-48
2022/04/23 03:10:21;;;;;;;8.13;3.80;;;10.60;6.70;;;;;;5095450;28;20480;-50
2022/04/23 03:12:48;;;;;;;6.50;4.63;;;10.50;9.30;;;;;;5094689;28;20469;-49
2022/04/23 03:15:18;;;;;;;5.53;3.83;;;10.50;12.70;;;;;;5095451;28;20484;-48
2022/04/23 03:17:49;;;;;;;6.00;3.80;;;10.50;16.90;;;;;;5093248;28;20980;-46
2022/04/23 03:20:16;;;;;;;6.37;3.80;;;10.40;26.50;;;;;;5094903;28;20560;-52
2022/04/23 03:22:44;;;;;;;6.93;5.03;;;10.40;26.80;;;;;;5093055;28;20550;-46
2022/04/23 03:25:12;;;;;;;5.77;4.27;;;10.40;25.20;;;;;;5094183;28;20831;-48
2022/04/23 03:27:41;;;;;;;5.50;3.40;;;10.40;29.00;;;;;;5094202;28;20919;-51
2022/04/23 03:30:10;;;;;;;4.20;3.30;;;10.40;25.70;;;;;;5094157;28;20445;-50
2022/04/23 03:32:39;;;;;;;6.37;4.50;;;10.50;15.00;;;;;;5093359;28;20543;-52
2022/04/23 03:35:06;;;;;;;6.13;3.73;;;10.70;1.00;;;;;;5095292;28;20502;-52
2022/04/23 03:37:35;;;;;;;4.10;2.90;;;10.70;1.00;;;;;;5094727;28;20555;-48
2022/04/23 03:40:08;;;;;;;5.83;4.00;;;10.70;1.00;;;;;;5096096;28;20544;-52
2022/04/23 03:42:35;;;;;;;4.60;2.87;;;10.60;6.80;;;;;;5093884;28;20576;-52
2022/04/23 03:45:02;;;;;;;6.53;3.90;;;10.60;12.50;;;;;;5095830;28;20532;-49
2022/04/23 03:47:31;;;;;;;7.20;4.60;;;10.70;15.60;;;;;;5093084;28;20453;-53
2022/04/23 03:49:58;;;;;;;4.90;3.73;;;10.70;3.80;;;;;;5094636;28;20445;-48
2022/04/23 03:52:25;;;;;;;6.70;4.90;;;10.80;1.00;;;;;;5094309;28;20510;-51
2022/04/23 03:54:52;;;;;;;6.73;4.20;;;10.80;1.00;;;;;;5095179;28;20476;-50
2022/04/23 03:57:20;;;;;;;8.33;4.07;;;10.70;1.00;;;;;;5094091;28;20457;-48
2022/04/23 03:59:47;;;;;;;6.00;3.23;;;10.70;1.00;;;;;;5095652;28;20456;-46
2022/04/23 04:02:14;;;;;;;7.37;4.40;;;10.70;1.00;;;;;;5093052;28;20580;-51
2022/04/23 04:04:41;;;;;;;4.87;3.00;;;10.70;1.00;;;;;;5093619;28;20532;-49
2022/04/23 04:07:08;;;;;;;3.80;2.80;;;10.60;1.00;;;;;;5091747;28;20461;-53
2022/04/23 04:09:35;;;;;;;6.57;3.90;;;10.70;1.00;;;;;;5093730;28;20540;-49
2022/04/23 04:12:03;;;;;;;4.40;2.03;;;10.60;1.00;;;;;;5092525;28;20540;-51
2022/04/23 04:14:32;;;;;;;3.20;2.87;;;10.50;1.00;;;;;;5093497;28;20453;-48
2022/04/23 04:17:00;;;;;;;5.07;1.93;;;10.50;1.00;;;;;;5093297;28;20846;-49
2022/04/23 04:19:28;;;;;;;5.07;2.40;;;10.50;1.00;;;;;;5095702;28;20449;-49
2022/04/23 04:21:55;;;;;;;3.20;1.83;;;10.50;1.00;;;;;;5095413;28;20936;-47
2022/04/23 04:24:23;;;;;;;2.57;1.70;;;10.50;1.00;;;;;;5095869;28;20532;-50
2022/04/23 04:26:50;;;;;;;3.70;2.30;;;10.30;1.00;;;;;;5095278;28;20453;-50
2022/04/23 04:29:18;;;;;;;4.67;2.10;;;10.40;1.00;;;;;;5093196;28;20464;-50
2022/04/23 04:31:50;;;;;;;5.90;1.77;;;10.40;1.00;;;;;;5094969;28;20825;-48
2022/04/23 04:34:18;;;;;;;4.97;2.63;;;10.50;1.00;;;;;;5098042;28;20793;-53
2022/04/23 04:36:45;;;;;;;3.40;1.60;;;10.60;1.00;;;;;;5097810;28;20489;-50
2022/04/23 04:39:12;;;;;;;2.73;1.60;;;10.60;1.00;;;;;;5099042;28;20499;-51
2022/04/23 04:41:39;;;;;;;5.50;1.93;;;10.70;1.00;;;;;;5096713;28;20579;-50
2022/04/23 04:44:07;;;;;;;5.23;2.50;;;10.50;1.00;;;;;;5099361;28;20535;-52
2022/04/23 04:46:34;;;;;;;4.73;2.27;;;10.30;1.00;;;;;;5098243;28;20544;-48
2022/04/23 04:49:02;;;;;;;3.73;1.77;;;10.40;1.00;;;;;;5098637;28;20877;-50
2022/04/23 04:51:29;;;;;;;3.37;1.60;;;10.40;1.00;;;;;;5098070;28;20536;-49
2022/04/23 04:53:56;;;;;;;3.70;1.77;;;10.50;1.00;;;;;;5080696;28;20441;-53
2022/04/23 04:56:24;;;;;;;3.30;1.90;;;10.50;1.00;;;;;;5098766;28;20533;-48
2022/04/23 04:58:51;;;;;;;3.90;2.03;;;10.40;1.00;;;;;;5097073;28;20571;-48
2022/04/23 05:01:18;;;;;;;3.93;2.53;;;10.40;1.00;;;;;;5098568;28;20989;-47
2022/04/23 05:03:45;;;;;;;4.37;2.10;;;10.50;1.00;;;;;;5098879;28;20553;-52
2022/04/23 05:06:13;;;;;;;4.00;2.00;;;10.50;1.00;;;;;;5098468;28;20446;-55
2022/04/23 05:08:40;;;;;;;3.70;1.63;;;10.40;1.00;;;;;;5098736;28;20511;-51
2022/04/23 05:11:08;;;;;;;3.00;1.83;;;10.40;1.00;;;;;;5098017;28;20880;-53
2022/04/23 05:13:34;;;;;;;2.90;2.03;;;10.50;1.00;;;;;;5098535;28;20507;-52
2022/04/23 05:16:02;;;;;;;3.70;2.00;;;10.60;1.00;;;;;;5095911;28;20517;-50
2022/04/23 05:18:29;;;;;;;6.97;3.33;;;10.60;1.00;;;;;;5098362;28;20445;-54
2022/04/23 05:20:55;;;;;;;3.47;1.70;;;10.50;1.00;;;;;;5097223;28;20461;-54
2022/04/23 05:23:24;;;;;;;2.33;2.00;;;10.50;1.00;;;;;;5098214;28;20831;-53
2022/04/23 05:25:51;;;;;;;4.10;1.90;;;10.50;1.00;;;;;;5095671;28;20540;-51
2022/04/23 05:28:19;;;;;;;2.17;1.20;;;10.60;1.00;;;;;;5097483;28;20957;-53
2022/04/23 05:30:46;;;;;;;2.80;2.07;;;10.70;1.00;;;;;;5094740;28;20814;-48
2022/04/23 05:33:13;;;;;;;5.73;2.20;;;10.90;1.00;;;;;;5097499;28;20798;-52
2022/04/23 05:35:43;;;;;;;4.80;2.40;;;11.00;1.00;;;;;;5095041;28;20539;-53
2022/04/23 05:38:10;;;;;;;3.50;2.30;;;11.10;1.00;;;;;;5097661;28;20537;-52
2022/04/23 05:40:38;;;;;;;2.77;1.40;;;11.00;1.00;;;;;;5095861;28;20446;-51
2022/04/23 05:43:05;;;;;;;6.60;2.33;;;11.10;1.00;;;;;;5096385;28;20482;-50
2022/04/23 05:45:32;;;;;;;4.10;1.67;;;11.20;1.00;;;;;;5096528;28;20557;-47
2022/04/23 05:47:59;;;;;;;5.00;2.60;;;11.20;1.00;;;;;;5096160;28;20446;-52
2022/04/23 05:50:27;;;;;;;3.10;2.03;;;11.30;1.00;;;;;;5093981;28;20552;-50
2022/04/23 05:52:55;;;;;;;5.20;2.37;;;11.30;1.00;;;;;;5096790;28;20452;-48
2022/04/23 05:55:21;;;;;;;3.00;1.40;;;11.20;1.00;;;;;;5094437;28;20563;-53
2022/04/23 05:57:50;;;;;;;3.07;1.90;;;11.30;1.00;;;;;;5096581;28;20536;-52
2022/04/23 06:00:18;;;;;;;3.20;1.70;;;11.60;1.00;;;;;;5096654;28;20489;-53
2022/04/23 06:02:44;;;;;;;4.03;2.17;;;11.60;1.00;;;;;;5096490;28;20986;-52
2022/04/23 06:05:14;;;;;;;3.03;1.97;;;11.70;99.90;;;;;;5095006;28;20453;-48
2022/04/23 06:07:41;;;;;;;4.03;2.50;;;11.40;1.00;;;;;;5095841;28;20895;-53
2022/04/23 06:10:10;;;;;;;3.40;1.77;;;11.30;1.00;;;;;;5094215;28;21142;-52
2022/04/23 06:12:37;;;;;;;3.57;1.87;;;11.30;1.00;;;;;;5096381;28;20453;-52
2022/04/23 06:15:06;;;;;;;3.73;2.23;;;11.40;1.00;;;;;;5094736;28;20548;-53
2022/04/23 06:17:33;;;;;;;4.43;2.47;;;11.40;1.00;;;;;;5087442;28;20535;-51
2022/04/23 06:20:01;;;;;;;5.00;2.07;;;11.30;1.00;;;;;;5081135;28;20545;-52
2022/04/23 06:22:28;;;;;;;4.10;2.20;;;11.40;1.00;;;;;;5078449;28;20474;-50
2022/04/23 06:24:55;;;;;;;2.03;1.57;;;11.50;1.00;;;;;;5073611;28;20823;-50
2022/04/23 06:27:22;;;;;;;2.60;1.73;;;11.70;1.00;;;;;;5073695;28;20829;-53
2022/04/23 06:29:53;;;;;;;2.20;1.30;;;11.80;99.90;;;;;;5074067;28;20541;-52
2022/04/23 06:32:24;;;;;;;2.47;1.50;;;11.80;99.90;;;;;;5075412;28;20841;-48
2022/04/23 06:34:51;;;;;;;3.65;1.88;;;11.70;99.90;;;;;;5072401;28;20610;-51
2022/04/23 06:37:19;;;;;;;2.47;1.70;;;11.90;1.00;;;;;;5094475;28;20442;-51
2022/04/23 06:39:46;;;;;;;2.50;1.60;;;11.90;1.00;;;;;;5094222;28;20446;-53
2022/04/23 06:42:16;;;;;;;3.03;1.50;;;12.00;1.00;;;;;;5095695;28;21112;-48
2022/04/23 06:44:44;;;;;;;3.80;1.83;;;12.00;1.00;;;;;;5094437;28;20738;-53
2022/04/23 06:47:11;;;;;;;1.60;1.23;;;12.00;99.90;;;;;;5095680;28;20456;-53
2022/04/23 06:49:40;;;;;;;4.23;1.50;;;12.00;99.90;;;;;;5080662;28;20482;-51
2022/04/23 06:52:08;;;;;;;3.07;1.30;;;12.00;1.00;;;;;;5075261;28;20450;-53
2022/04/23 06:57:17;;;;;;;2.13;1.30;;;11.90;21.60;;;;;;5068870;28;20703;-51
2022/04/23 06:59:45;;;;;;;2.87;1.40;;;11.80;1.00;;;;;;5072258;28;20839;-56
2022/04/23 07:02:12;;;;;;;3.40;1.33;;;11.70;1.00;;;;;;5074306;28;20864;-54
2022/04/23 07:04:41;;;;;;;2.17;1.30;;;11.90;99.90;;;;;;5072421;28;20454;-53
2022/04/23 07:07:10;;;;;;;1.90;1.30;;;12.00;1.00;;;;;;5081445;28;21033;-53
2022/04/23 07:09:39;;;;;;;3.10;1.37;;;12.10;1.00;;;;;;5093893;28;20454;-57
2022/04/23 07:12:14;;;;;;;3.50;1.60;;;12.30;99.90;;;;;;5096417;28;20818;-52
2022/04/23 07:14:42;;;;;;;2.70;1.30;;;12.30;1.00;;;;;;5095416;28;20476;-54
2022/04/23 07:17:11;;;;;;;1.67;1.10;;;12.20;1.00;;;;;;5095027;28;20989;-55
2022/04/23 07:19:45;;;;;;;2.10;1.27;;;12.30;1.00;;;;;;5095138;28;20889;-56
2022/04/23 07:22:15;;;;;;;2.20;1.60;;;12.30;99.90;;;;;;5094693;28;20939;-56
2022/04/23 07:24:43;;;;;;;2.30;1.40;;;12.30;99.90;;;;;;5093422;28;20460;-55
2022/04/23 07:27:11;;;;;;;2.53;1.93;;;12.40;39.80;;;;;;5094924;28;20483;-55
2022/04/23 07:29:41;;;;;;;2.47;1.80;;;12.30;99.90;;;;;;5092147;28;20511;-53
2022/04/23 07:32:09;;;;;;;2.57;1.10;;;12.40;99.50;;;;;;5095461;28;20434;-54
2022/04/23 07:37:31;;;;;;;2.60;1.53;;;12.30;99.90;;;;;;5095456;28;20421;-56
2022/04/23 07:40:01;;;;;;;2.07;1.30;;;12.30;99.90;;;;;;5095048;28;20568;-54
2022/04/23 07:42:28;;;;;;;3.03;1.00;;;12.30;99.90;;;;;;5078127;28;20477;-56
2022/04/23 07:44:55;;;;;;;1.80;1.13;;;12.10;99.90;;;;;;5085232;28;20462;-53
2022/04/23 07:47:25;;;;;;;2.00;1.40;;;12.10;1.00;;;;;;5083463;28;20543;-51
2022/04/23 07:49:52;;;;;;;2.10;1.80;;;12.30;1.00;;;;;;5085090;28;20438;-50
2022/04/23 07:52:19;;;;;;;2.80;1.23;;;12.50;99.90;;;;;;5092369;28;20471;-50
2022/04/23 07:54:48;;;;;;;2.60;1.70;;;12.60;1.00;;;;;;5095316;28;20481;-55
2022/04/23 07:57:24;;;;;;;1.83;1.20;;;12.70;99.90;;;;;;5091599;28;20552;-51
2022/04/23 07:59:51;;;;;;;2.90;1.40;;;12.60;1.00;;;;;;5094078;28;20541;-52
2022/04/23 08:02:20;;;;;;;1.77;1.10;;;12.70;1.00;;;;;;5091307;28;20580;-52
2022/04/23 08:04:47;;;;;;;1.80;1.10;;;12.70;99.90;;;;;;5092412;28;20446;-55
2022/04/23 08:07:16;;;;;;;1.33;1.00;;;12.80;99.90;;;;;;5094368;28;20479;-54
2022/04/23 08:09:50;;;;;;;3.33;1.33;;;12.90;99.90;;;;;;5070822;28;20453;-55
2022/04/23 08:12:18;;;;;;;3.70;1.57;;;13.20;1.00;;;;;;4991885;28;20459;-54
2022/04/23 08:14:48;;;;;;;2.00;1.17;;;13.00;1.00;;;;;;5094110;28;20547;-54
2022/04/23 08:17:15;;;;;;;1.60;0.97;;;12.90;1.00;;;;;;5097770;28;20506;-54
2022/04/23 08:19:42;;;;;;;2.20;1.10;;;13.20;96.20;;;;;;5082089;28;20723;-55
2022/04/23 08:22:09;;;;;;;2.13;1.10;;;13.40;1.00;;;;;;5096440;28;20554;-53
2022/04/23 08:24:36;;;;;;;2.80;1.30;;;13.60;1.00;;;;;;5092492;28;20544;-56
2022/04/23 08:27:03;;;;;;;4.07;1.73;;;13.60;99.90;;;;;;5082763;28;20528;-57
2022/04/23 08:32:18;;;;;;;2.20;1.20;;;13.60;99.90;;;;;;5093433;28;20436;-54
2022/04/23 08:34:54;;;;;;;2.20;1.20;;;13.30;1.00;;;;;;5094301;28;20536;-54
2022/04/23 08:37:22;;;;;;;2.50;1.40;;;13.10;1.00;;;;;;5096451;28;20448;-52
2022/04/23 08:39:51;;;;;;;2.70;1.43;;;13.00;1.00;;;;;;5091178;28;20493;-55
2022/04/23 08:42:21;;;;;;;2.80;1.50;;;13.00;1.00;;;;;;5095792;28;20487;-55
2022/04/23 08:44:52;;;;;;;2.80;1.50;;;13.20;1.00;;;;;;5096272;28;20460;-54
2022/04/23 08:47:24;;;;;;;1.80;1.30;;;13.30;1.00;;;;;;5094334;28;20481;-54
2022/04/23 08:49:56;;;;;;;3.17;1.57;;;13.40;1.00;;;;;;5092704;28;20932;-53
2022/04/23 08:52:29;;;;;;;1.60;0.90;;;13.40;1.00;;;;;;5092203;28;20942;-54
2022/04/23 08:54:57;;;;;;;2.40;1.57;;;13.40;1.00;;;;;;5093785;28;20520;-55
2022/04/23 08:57:35;;;;;;;2.60;1.20;;;13.70;99.90;;;;;;5096428;28;20445;-53
2022/04/23 09:00:08;;;;;;;2.00;1.30;;;13.90;99.90;;;;;;5096911;28;20452;-54
2022/04/23 09:02:36;;;;;;;2.07;1.30;;;14.00;99.90;;;;;;5092597;28;20484;-56
2022/04/23 09:05:03;;;;;;;2.73;1.30;;;13.90;99.90;;;;;;5093547;28;20882;-52
2022/04/23 09:07:34;;;;;;;2.30;1.33;;;13.80;99.90;;;;;;5093124;28;20458;-55
2022/04/23 09:10:05;;;;;;;3.23;1.47;;;13.80;99.90;;;;;;5089273;28;20472;-52
2022/04/23 09:12:53;;;;;;;2.00;1.30;;;13.60;99.90;;;;;;5095936;28;20530;-55
2022/04/23 09:24:09;;;;;;;2.93;1.60;;;13.70;99.90;;;;;;5093945;28;20477;-52
2022/04/23 09:26:36;;;;;;;3.33;1.57;;;13.90;99.90;;;;;;5097122;28;20448;-54
2022/04/23 09:29:27;;;;;;;1.93;1.40;;;14.10;99.90;;;;;;4897651;28;20548;-56
2022/04/23 09:32:11;;;;;;;3.40;1.30;;;14.20;99.90;;;;;;5093581;28;20544;-56
2022/04/23 09:34:38;;;;;;;2.03;1.23;;;14.20;99.90;;;;;;5077355;28;20472;-56
2022/04/23 09:37:10;;;;;;;3.97;1.40;;;14.20;99.90;;;;;;5081177;28;20483;-56
2022/04/23 09:39:38;;;;;;;4.17;1.50;;;14.30;99.90;;;;;;5092890;28;20445;-54
2022/04/23 09:42:19;;;;;;;2.23;1.50;;;14.30;99.90;;;;;;5089926;28;20453;-55
2022/04/23 09:44:48;;;;;;;2.80;1.27;;;14.10;99.90;;;;;;5074631;28;20503;-54
2022/04/23 09:47:29;;;;;;;2.60;1.40;;;13.80;99.90;;;;;;5085797;28;20446;-53
2022/04/23 09:49:59;;;;;;;2.63;1.50;;;13.80;99.90;;;;;;5080284;28;20441;-55
2022/04/23 09:52:30;;;;;;;3.07;1.20;;;13.80;99.90;;;;;;5088981;28;20473;-54
2022/04/23 09:55:02;;;;;;;2.20;1.60;;;13.70;99.90;;;;;;5091469;28;20547;-55
2022/04/23 09:57:32;;;;;;;2.33;1.30;;;13.80;99.90;;;;;;5091783;28;20449;-55
2022/04/23 09:59:59;;;;;;;12.50;4.40;;;13.80;99.90;;;;;;5072810;28;20448;-56
2022/04/23 10:02:29;;;;;;;9.37;3.43;;;14.10;99.90;;;;;;5095295;28;20540;-51
2022/04/23 10:05:04;;;;;;;3.20;2.07;;;14.00;99.90;;;;;;5080813;28;20451;-55
2022/04/23 10:07:37;;;;;;;2.57;1.20;;;14.20;99.90;;;;;;5086685;28;20954;-53
2022/04/23 10:10:08;;;;;;;2.77;1.00;;;14.00;99.90;;;;;;5088384;28;20448;-53
2022/04/23 10:12:37;;;;;;;1.93;1.00;;;14.10;99.90;;;;;;5094459;28;20456;-47
2022/04/23 10:15:14;;;;;;;1.50;0.80;;;14.00;99.90;;;;;;5080929;28;20753;-55
2022/04/23 10:17:44;;;;;;;2.80;0.90;;;14.10;99.90;;;;;;5074083;28;20525;-54
2022/04/23 10:20:14;;;;;;;1.30;0.83;;;14.50;99.90;;;;;;5079551;28;20608;-50
2022/04/23 10:23:04;;;;;;;2.20;1.33;;;14.70;62.20;;;;;;5079942;28;20551;-54
2022/04/23 10:25:41;;;;;;;1.37;1.03;;;15.00;1.00;;;;;;5063688;28;20489;-57
2022/04/23 10:28:09;;;;;;;2.23;0.90;;;15.20;1.00;;;;;;5087544;28;20448;-54
2022/04/23 10:30:38;;;;;;;1.30;0.77;;;15.20;1.00;;;;;;5093671;28;20503;-56
2022/04/23 10:33:26;;;;;;;1.60;0.87;;;15.30;1.00;;;;;;5091544;28;20963;-55
2022/04/23 10:36:08;;;;;;;2.03;0.90;;;15.00;1.00;;;;;;5078225;28;20857;-55
2022/04/23 10:38:40;;;;;;;1.10;0.80;;;14.90;1.00;;;;;;5076350;28;20442;-49
2022/04/23 10:41:13;;;;;;;1.50;0.80;;;14.90;1.00;;;;;;5086746;28;20693;-53
2022/04/23 10:43:52;;;;;;;2.07;0.90;;;15.00;1.00;;;;;;5085858;28;20506;-54
2022/04/23 10:46:44;;;;;;;2.80;1.10;;;15.30;1.00;;;;;;5086739;28;20491;-50
2022/04/23 10:49:14;;;;;;;1.40;0.90;;;15.30;1.00;;;;;;5087319;28;20450;-51
2022/04/23 10:51:49;;;;;;;1.33;0.80;;;15.40;1.00;;;;;;5082741;28;20739;-53
2022/04/23 10:54:19;;;;;;;1.40;0.90;;;15.70;1.00;;;;;;5092708;28;20453;-53
2022/04/23 10:56:50;;;;;;;1.30;0.77;;;15.90;1.00;;;;;;5087997;28;20841;-52
2022/04/23 10:59:42;;;;;;;1.50;0.83;;;16.00;1.00;;;;;;5083378;28;20849;-52
2022/04/23 11:02:30;;;;;;;1.10;0.70;;;15.90;1.00;;;;;;5086253;28;20452;-50
2022/04/23 11:13:40;;;;;;;1.70;0.80;;;15.10;1.00;;;;;;5082911;28;20547;-54
2022/04/23 11:16:16;;;;;;;10.77;5.30;;;15.00;1.00;;;;;;5086222;28;20564;-53
2022/04/23 11:18:50;;;;;;;1.77;1.03;;;15.00;1.00;;;;;;5077066;28;20473;-54
2022/04/23 11:21:24;;;;;;;2.57;1.00;;;15.00;1.00;;;;;;5085258;28;20736;-54
2022/04/23 11:23:53;;;;;;;5.10;1.10;;;15.00;1.00;;;;;;5051169;28;20511;-51
2022/04/23 11:26:22;;;;;;;2.73;1.33;;;15.00;1.00;;;;;;5085431;28;20453;-55
2022/04/23 11:29:02;;;;;;;2.33;0.90;;;14.90;1.00;;;;;;5080190;28;20722;-55
2022/04/23 11:31:30;;;;;;;1.43;1.00;;;15.00;1.00;;;;;;5062946;28;20438;-55
2022/04/23 11:34:00;;;;;;;2.07;1.17;;;15.10;1.00;;;;;;5079528;28;20916;-52
2022/04/23 11:36:34;;;;;;;2.17;1.10;;;15.20;1.00;;;;;;5081657;28;20453;-54
2022/04/23 11:39:06;;;;;;;1.60;0.87;;;15.20;1.00;;;;;;5081740;28;20490;-54
2022/04/23 11:41:38;;;;;;;1.40;0.90;;;15.00;1.00;;;;;;5086851;28;20883;-54
2022/04/23 11:44:15;;;;;;;1.40;1.00;;;15.00;1.00;;;;;;5090092;28;20509;-54
2022/04/23 11:46:43;;;;;;;2.17;1.20;;;14.80;1.00;;;;;;5092757;28;20619;-54
2022/04/23 11:49:10;;;;;;;2.30;1.10;;;14.90;1.00;;;;;;5094005;28;20464;-51
2022/04/23 11:51:49;;;;;;;1.60;1.00;;;15.10;1.00;;;;;;5069521;28;20588;-54
2022/04/23 11:54:19;;;;;;;2.30;1.00;;;15.30;1.00;;;;;;5049882;28;20455;-54
2022/04/23 11:56:46;;;;;;;1.57;1.00;;;15.30;1.00;;;;;;5094325;28;20843;-53
2022/04/23 11:59:15;;;;;;;1.70;1.13;;;15.50;1.00;;;;;;5093301;28;20518;-52
2022/04/23 12:01:47;;;;;;;1.77;1.17;;;15.10;1.00;;;;;;5089672;28;20468;-55
2022/04/23 12:04:20;;;;;;;1.70;1.03;;;15.20;1.00;;;;;;5081580;28;20482;-55
2022/04/23 12:06:50;;;;;;;1.63;1.07;;;15.40;1.00;;;;;;5087743;28;20509;-55
2022/04/23 12:09:20;;;;;;;1.63;1.00;;;15.50;1.00;;;;;;5079498;28;20491;-53
2022/04/23 12:12:19;;;;;;;3.83;1.20;;;15.70;1.00;;;;;;5096830;28;20549;-53
2022/04/23 12:14:50;;;;;;;2.40;1.10;;;15.70;1.00;;;;;;5090708;28;20454;-53
2022/04/23 12:17:25;;;;;;;2.97;1.00;;;15.60;1.00;;;;;;5076323;28;20535;-53
2022/04/23 12:19:56;;;;;;;2.17;1.10;;;15.40;1.00;;;;;;5089707;28;20453;-55
2022/04/23 12:22:26;;;;;;;2.47;1.20;;;15.30;1.00;;;;;;5082847;28;20498;-50
2022/04/23 12:25:08;;;;;;;1.10;0.80;;;15.20;1.00;;;;;;5067176;28;20496;-54
2022/04/23 12:27:53;;;;;;;2.07;1.10;;;15.40;1.00;;;;;;5087712;28;20739;-52
2022/04/23 12:41:58;;;;;;;1.70;1.13;;;15.70;1.00;;;;;;5094297;28;20421;-53
2022/04/23 12:44:26;;;;;;;3.07;1.50;;;15.80;1.00;;;;;;5091230;28;20554;-50
2022/04/23 12:47:00;;;;;;;2.57;1.10;;;16.10;1.00;;;;;;5080618;28;20622;-56
2022/04/23 12:49:47;;;;;;;2.50;1.10;;;16.20;1.00;;;;;;5090304;28;20450;-52
2022/04/23 12:52:17;;;;;;;1.80;0.97;;;16.20;1.00;;;;;;5090154;28;20470;-53
2022/04/23 12:55:13;;;;;;;1.90;1.27;;;16.30;1.00;;;;;;5078213;28;20446;-55
2022/04/23 12:57:44;;;;;;;4.00;1.30;;;16.30;1.00;;;;;;5086220;28;20442;-55
2022/04/23 13:00:18;;;;;;;1.77;1.00;;;16.30;1.00;;;;;;5088927;28;20437;-55
2022/04/23 13:02:47;;;;;;;1.83;1.20;;;16.20;1.00;;;;;;5075977;28;20457;-52
2022/04/23 13:05:14;;;;;;;2.70;1.23;;;16.00;1.00;;;;;;5088815;28;20478;-53
2022/04/23 13:10:40;;;;;;;1.90;1.20;;;15.90;1.00;;;;;;5088319;28;20525;-55
2022/04/23 13:13:07;;;;;;;2.50;1.33;;;15.70;1.00;;;;;;5074542;28;20477;-55
2022/04/23 13:15:39;;;;;;;1.60;1.20;;;15.50;1.00;;;;;;5089286;28;20469;-55
2022/04/23 13:18:08;;;;;;;3.17;1.40;;;15.50;1.00;;;;;;5081044;28;20541;-55
2022/04/23 13:20:35;;;;;;;2.87;1.43;;;15.90;1.00;;;;;;4832171;28;21069;-53
2022/04/23 13:23:05;;;;;;;1.20;1.00;;;16.10;1.00;;;;;;5091444;28;20790;-54
2022/04/23 13:25:33;;;;;;;3.63;1.30;;;15.90;1.00;;;;;;5083773;28;20485;-54
2022/04/23 13:28:01;;;;;;;2.23;1.63;;;15.80;1.00;;;;;;5091286;28;20458;-55
2022/04/23 13:30:29;;;;;;;3.20;1.20;;;15.70;1.00;;;;;;5078180;28;20554;-53
2022/04/23 13:32:56;;;;;;;2.10;1.13;;;15.90;1.00;;;;;;5080784;28;20446;-56
2022/04/23 13:35:23;;;;;;;4.70;1.20;;;15.70;1.00;;;;;;5088242;28;20888;-56
2022/04/23 13:37:51;;;;;;;2.33;1.40;;;15.70;1.00;;;;;;5082434;28;20528;-54
2022/04/23 13:40:20;;;;;;;1.50;1.10;;;15.90;1.00;;;;;;5084783;28;20442;-56
2022/04/23 13:42:47;;;;;;;1.93;1.43;;;16.20;1.00;;;;;;5059400;28;20453;-56
2022/04/23 13:45:17;;;;;;;4.03;1.53;;;16.10;1.00;;;;;;5086318;28;20979;-54
2022/04/23 13:47:44;;;;;;;1.70;1.40;;;15.90;1.00;;;;;;5063558;28;20454;-56